PGRO

Benjamin Taisacan Manglona International Airport

Rota Island, , North Mariana Islands
PGRO 160555Z 1606/1706 13011KT P6SM VCSH SCT013 BKN100 TEMPO 1606/1608 P6SM -RA BKN012 OVC100
Issued Valid From Valid To
Jul-16 @ 05:55 UTC
(51 minutes ago)
Jul-16 @ 06:00 UTC
(46 minutes ago)
Jul-17 @ 06:00 UTC
(in 23 hours)
Jul-16 @ 06:00 to Jul-17 @ 06:00
PGRO 160555Z 1606/1706 13011KT P6SM VCSH SCT013 BKN100
Wind Visibility Clouds
130° at 11 knots 10,000+ meters
  • Scattered at 1,300' AGL
  • Broken at 10,000' AGL
Temporary Jul-16 @ 06:00 to Jul-16 @ 08:00
TEMPO 1606/1608 P6SM -RA BKN012 OVC100
Visibility Clouds Conditions
10,000+ meters
  • Broken at 1,200' AGL
  • Overcast at 10,000' AGL
  • Light Rain
PGRO 160555Z 1606/1706 13011KT P6SM VCSH SCT013 BKN100 TEMPO 1606/1608 P6SM -RA BKN012 OVC100
Issued Jul-16 @ 05:55 UTC
(51 minutes ago)
Valid From Jul-16 @ 06:00 UTC
(46 minutes ago)
Valid To Jul-17 @ 06:00 UTC
(in 23 hours)
Jul-16 @ 06:00 - Jul-17 @ 06:00
Wind Visibility
130° at 11 knots 10,000+ meters
Clouds
  • Scattered at 1,300' AGL
  • Broken at 10,000' AGL
Temporary Jul-16 @ 06:00 - Jul-16 @ 08:00
Clouds
  • Broken at 1,200' AGL
  • Overcast at 10,000' AGL
Conditions
  • Light Rain